DFFD/OUA METAR and TAF weather

Enter ICAO airport designator
Station Type Date Time Source
DFFD METAR 2020/10/20 18:00 UTC NOAA

DFFD 201800Z 29003KT 9999 FEW020 FEW040CB 31/22 Q1011 TEMPO TS


Station Type Date Time Source
DFFD Decoded METAR 2020/10/20 18:00 UTC NOAA

Ouagadougou, Burkina Faso (DFFD) 12-21N 001-31W 306M
Oct 20, 2020 - 02:00 PM EDT / 2020.10.20 1800 UTC
Wind: from the WNW (290 degrees) at 3 MPH (3 KT):0
Visibility: greater than 7 mile(s):0
Sky conditions: mostly clear
Weather: Cumulonimbus clouds observed
Temperature: 87 F (31 C)
Heat index: 92.3 F (33.5 C):1
Dew Point: 71 F (22 C)
Relative Humidity: 58%
Pressure (altimeter): 29.85 in. Hg (1011 hPa)
ob: DFFD 201800Z 29003KT 9999 FEW020 FEW040CB 31/22 Q1011 TEMPO TS
cycle: 18

Station Type Date Time Source
DFFD TAF 2020/10/20 18:03 UTC NOAA

TAF TAF DFFD 201700Z 2018/2124 22008KT 9999 FEW026
TEMPO 2018/2024 4000 TSRA SCT026 FEW040CB

Example: see airport list